Aviation Digital Data Service (ADDS)

Output produced by METARs form (1538 UTC 20 May 2018)
found at http://aviationweather.gov/adds/metars/
 
KLBT 201334Z 2014/2112 00000KT 6SM BR OVC020 
     FM201500 22006KT P6SM VCSH SCT035 BKN150 
     FM210700 VRB03KT 4SM BR BKN006